Bolivar, Texas
Current Conditions -  °F | °C
As of 6:52 AM on Friday 19 Dec 2014 (Local Time) from KGLS Reporting Station
Overcast Overcast  
Wind Chill: 60°   Ceiling: 1900
Heat Index: 60°   Visibility: 10mi
Dew Point: 59°   Wind: 16mph
Humidity: 96%   Direction: 60°ENE
Pressure: 30.01"   Gusts: NA
Location:  29.4387°N, 94.6622°W
Report Text: KGLS 191252Z 06014KT 10SM OVC019 16/15 A3001 RMK AO1 RAE50 SLP163 P0006 T01560150
Loading
Personal Weather Stations






























Interactive Weather Map New forecast layout! Learn more

10-Day Weather Forecast

Advertisements
Track Severe Weather on mobile